Prochaines Courses

Inscriptions en ligne

Connexion

10Km

LES 10 KMS DE BOULOGNE du 29/06/14 (Réelle 10)
Rang Dossard Nom Prénom Temps Cat Rang Cat Ecart Ecart Cat Club Vitesse Km/h Temps au Km
1 527 MUSAU DENIS 00:32:12 SEM 1 00:00:00 00:00:00 NON LICENCIE 18,634 03:13
2 212 BOULOGNE JEREMY 00:32:50 V1M 1 00:00:38 00:00:00 AC AUDOMAROIS 18,274 03:17
3 171 MONTADOR NICOLAS 00:33:13 SEM 2 00:01:01 00:01:01 ATHLETISME CLUB OUTREAU 18,063 03:19
4 440 GRESSIER JIMMY 00:33:23 CAM 1 00:01:11 00:00:00 ENTENTE MARITIME ATHL. 17,973 03:20
5 493 CALLEBOUT KEVIN 00:34:57 ESM 1 00:02:45 00:00:00   17,167 03:30
6 172 FASQUEL DOMINIQUE 00:35:10 V1M 2 00:02:58 00:02:20 ATHLETISME CLUB OUTREAU 17,062 03:31
7 138 CARCEL JOFFREY 00:35:29 SEM 3 00:03:17 00:03:17 US VALENCIENNES 16,909 03:33
8 442 FOULOIN MATTHIEU 00:35:48 SEM 4 00:03:36 00:03:36 TOA 16,760 03:35
9 495 PICHONNIER GUILLAUME 00:35:50 SEM 5 00:03:38 00:03:38 ATHLETISME CLUB OUTREAU 16,744 03:35
10 220 BRUNET MICKAEL 00:35:56 SEM 6 00:03:44 00:03:44 BLANC NEZ TRIATHLON 16,698 03:36
11 551 BOURDON GILBERT 00:36:05 SEM 7 00:03:53 00:03:53 A.S. MARCK 16,628 03:37
12 520 DEWAGHE CHRISTOPHE 00:36:10 V2M 1 00:03:58 00:00:00 NON LICENCIE 16,590 03:37
13 402 WIDEHEM MICKAEL 00:36:13 V1M 3 00:04:01 00:03:23 MARQUISE ATHLETISME 16,567 03:37
14 74 BEAUMONT DENIS 00:36:14 V1M 4 00:04:02 00:03:24 ATHLETISME CLUB OUTREAU 16,559 03:37
15 252 MORIN AYMERIC 00:36:22 SEM 8 00:04:10 00:04:10 WIMEREUX RUNNING CLUB 16,499 03:38
16 130 DUCROCQ MARC-ANTOINE 00:36:35 SEM 9 00:04:23 00:04:23 NON LICENCIE 16,401 03:40
17 438 TOULOUMON ANTOINE 00:36:43 CAM 2 00:04:31 00:03:20 ENTENTE MARITIME ATHL. 16,341 03:40
18 478 POTTIER FREDERIC 00:36:44 V1M 5 00:04:32 00:03:54 USM MONTARGIS ATLHETISME
16,334 03:40
19 193 SAUNEUF PHILIPPE 00:36:48 V1M 6 00:04:36 00:03:58 SAINT MARTIN ATHLETISME 16,304 03:41
20 123 MILLE SEBASTIEN 00:36:48 SEM 10 00:04:36 00:04:36 TRIATHLON CLUB BOULONNAIS 16,304 03:41
21 230 GARCIA FLORIAN 00:36:51 SEM 11 00:04:39 00:04:39 ATHLETISME CLUB OUTREAU 16,282 03:41
22 434 DUFRESNE FABIEN 00:37:14 SEM 12 00:05:02 00:05:02 NON LICENCIE 16,115 03:43
23 473 LEGRAND OLIVIER 00:37:16 V1M 7 00:05:04 00:04:26 ATHLETISME CLUB OUTREAU 16,100 03:44
24 302 BUCAILLE JOHNNY 00:37:16 SEM 13 00:05:04 00:05:04 FREVENT OLYMPIC CLUB 16,100 03:44
25 56 HIVART GEOFFREY 00:37:18 SEM 14 00:05:06 00:05:06 TOUQUET TRAIL NATURE 16,086 03:44
26 106 PRUVOT ROMAIN 00:37:22 SEM 15 00:05:10 00:05:10 TOUQUET OPALE ATHLETISME 16,057 03:44
27 135 DI GIOVANNI FREDERIC 00:37:25 SEM 16 00:05:13 00:05:13 PEUGEOT 16,036 03:45
28 200 DUCLOY KEVIN 00:37:33 SEM 17 00:05:21 00:05:21 SAINT MARTIN ATHLETISME 15,979 03:45
29 222 RENAUX FREDERIC 00:37:42 SEM 18 00:05:30 00:05:30 BLANC NEZ TRIATHLON 15,915 03:46
30 456 HOYER JOHHNY 00:37:46 SEM 19 00:05:34 00:05:34 NON LICENCIE 15,887 03:47
31 433 HAIGNERE WILLIAM 00:37:47 SEM 20 00:05:35 00:05:35 NON LICENCIE 15,880 03:47
32 173 REMBUR JULIEN 00:37:55 SEM 21 00:05:43 00:05:43 NON LICENCIE 15,824 03:48
33 40 LEPRETRE CYRILLE 00:38:00 SEM 22 00:05:48 00:05:48 LE DRAPEAU 15,789 03:48
34 333 DOCQUOIS FREDERIC 00:38:13 V1M 8 00:06:01 00:05:23 LE DRAPEAU 15,700 03:49
35 204 MAQUINGHEN CHRISTOPHE 00:38:17 SEM 23 00:06:05 00:06:05 SAINT MARTIN ATHLETISME 15,673 03:50
36 118 BRILLARD SEBASTIEN 00:38:18 SEM 24 00:06:06 00:06:06 ATHLETISME CLUB OUTREAU 15,666 03:50
37 26 DELVALLEE ALEXANDRE 00:38:19 ESM 2 00:06:07 00:03:22 ATHLETISME CLUB OUTREAU 15,659 03:50
38 518 HEUNINCK AUGUSTIN 00:38:19 SEM 25 00:06:07 00:06:07 NON LICENCIE 15,659 03:50
39 221 GILLODTS ISABELLE 00:38:23 V1F 1 00:06:11 00:00:00 CLUB ATHLE. COUDEKERQUE-B 15,632 03:50
40 336 CARDON FLORIAN 00:38:24 JUM 1 00:06:12 00:00:00 LE DRAPEAU 15,625 03:50
41 366 GOSSELIN REYNALD 00:38:29 SEM 26 00:06:17 00:06:17 NON LICENCIE 15,591 03:51
42 208 PAQUES CHRISTOPHE 00:38:34 V1M 9 00:06:22 00:05:44 ATHLETISME CLUB OUTREAU 15,557 03:51
43 232 REMBUR FRANCOIS 00:38:35 SEM 27 00:06:23 00:06:23 SPORT EVASION DES 2 CAPS 15,551 03:52
44 521 WASSELIN DAVID 00:38:40 V1M 10 00:06:28 00:05:50 AS - Mark Athlétisme 15,517 03:52
45 332 HANON SIMON 00:38:43 SEM 28 00:06:31 00:06:31 LE DRAPEAU 15,497 03:52
46 315 RUMEAUX MICKAEL 00:38:43 V1M 11 00:06:31 00:05:53 ATHLETIQUE CLUB CAPELLOIS 15,497 03:52
47 311 LEVEL FABIEN 00:38:43 SEM 29 00:06:31 00:06:31 ATHLETIQUE CLUB CAPELLOIS 15,497 03:52
48 115 BOURGAIN SEBASTIEN 00:38:45 SEM 30 00:06:33 00:06:33 ATHLETISME CLUB OUTREAU 15,484 03:53
49 437 GRARE FLORIAN 00:38:48 JUM 2 00:06:36 00:00:24 MARQUISE ATHLETISME 15,464 03:53
50 156 ROGERE STEPHANE 00:38:49 V1M 12 00:06:37 00:05:59 ATHLETISME CLUB OUTREAU 15,457 03:53
51 475 BOURGAIN MICKAEL 00:38:51 SEM 31 00:06:39 00:06:39 OPALE TRAIL NATURE 15,444 03:53
52 455 GOURDIN ERIC 00:38:56 V1M 13 00:06:44 00:06:06 ATHLETISME CLUB OUTREAU 15,411 03:54
53 548 BUCAMP THOMAS 00:38:57 CAM 3 00:06:45 00:05:34 NON LICENCIE 15,404 03:54
54 225 GOBERT LUDOVIC 00:38:58 SEM 32 00:06:46 00:06:46 CS NESLES 15,398 03:54
55 148 ARZEL BENJAMIN 00:39:04 SEM 33 00:06:52 00:06:52 NON LICENCIE 15,358 03:54
56 384 CLAVIEZ JOHANN 00:39:08 SEM 34 00:06:56 00:06:56 NON LICENCIE 15,332 03:55
57 413 LETITRE BRUNO 00:39:14 SEM 35 00:07:02 00:07:02 ATHLETISME CLUB OUTREAU 15,293 03:55
58 104 FONTAINE NICOLAS 00:39:16 SEM 36 00:07:04 00:07:04 ATHLETISME CLUB OUTREAU 15,280 03:56
59 536 DEGARDIN LAURENT 00:39:21 V1M 14 00:07:09 00:06:31 ETAPLES TRIATHLON 15,248 03:56
60 86 BLOQUET STANISLAS 00:39:23 V1M 15 00:07:11 00:06:33 ATHLETISME CLUB OUTREAU 15,235 03:56
61 288 DESACHY MARC 00:39:23 V1M 16 00:07:11 00:06:33 ATHLETISME CLUB OUTREAU 15,235 03:56
62 82 PERNIN TONY 00:39:26 SEM 37 00:07:14 00:07:14 NON LICENCIE 15,216 03:57
63 229 RAY SAMUEL 00:39:35 V1M 17 00:07:23 00:06:45 NON LICENCIE 15,158 03:58
64 386 LELEU WILLY 00:39:41 V1M 18 00:07:29 00:06:51 NON LICENCIE 15,120 03:58
65 47 COUSIN MAXIME 00:39:42 SEM 38 00:07:30 00:07:30 NON LICENCIE 15,113 03:58
66 448 LE BEC MICHAEL 00:39:43 SEM 39 00:07:31 00:07:31 TEAM TRAIL DESVRES 15,107 03:58
67 2 SART THIERRY 00:39:44 V2M 2 00:07:32 00:03:34 ATHLETISME CLUB OUTREAU 15,101 03:58
68 573 TAVERNE DAMIEN 00:39:44 SEM 40 00:07:32 00:07:32 TOUQUET OPALE ATHLETISME 15,101 03:58
69 371 GHYS MATHIEU 00:39:45 SEM 41 00:07:33 00:07:33 NON LICENCIE 15,094 03:59
70 423 MAILLARD ADRIEN 00:39:49 SEM 42 00:07:37 00:07:37 ATHLETISME CLUB OUTREAU 15,069 03:59
71 79 CAPELLE JEANNE 00:39:50 SEF 1 00:07:38 00:00:00 BOULOGNE ATHLETIQUE CLUB 15,063 03:59
72 250 LARUELLE FREDERIC 00:39:53 V1M 19 00:07:41 00:07:03 WIMEREUX RUNNING CLUB 15,044 03:59
73 93 DELANNOY BASTIEN 00:39:54 SEM 43 00:07:42 00:07:42 AMICALE HOSPITALIERS BOULOGNE 15,038 03:59
74 266 HALLENNE VALERY 00:39:56 V1M 20 00:07:44 00:07:06 TOUQUET OPALE ATHLETISME 15,025 04:00
75 380 PERARD VINCENT 00:40:02 SEM 44 00:07:50 00:07:50 LE DRAPEAU 14,988 04:00
76 149 LEMENBRE ALAIN 00:40:02 V1M 21 00:07:50 00:07:12 NON LICENCIE 14,988 04:00
77 243 DUCROCQ CHRISTOPHE 00:40:03 V1M 22 00:07:51 00:07:13 WIMEREUX RUNNING CLUB 14,981 04:00
78 73 LEHON LUDOVIC 00:40:05 SEM 45 00:07:53 00:07:53 NON LICENCIE 14,969 04:00
79 76 LASSALLE PASCAL 00:40:07 V1M 23 00:07:55 00:07:17 ATHLETISME CLUB OUTREAU 14,956 04:01
80 306 BRIEZ ARNAUD 00:40:08 SEM 46 00:07:56 00:07:56 ATHLETIQUE CLUB CAPELLOIS 14,950 04:01
81 327 FLAHAUT DANIEL 00:40:17 V1M 24 00:08:05 00:07:27 LE DRAPEAU 14,894 04:02
82 310 LEFEBVRE MAXENCE 00:40:21 CAM 4 00:08:09 00:06:58 ATHLETIQUE CLUB CAPELLOIS 14,870 04:02
83 329 LEBLOND ARNAUD 00:40:27 SEM 47 00:08:15 00:08:15 LE DRAPEAU 14,833 04:03
84 410 MERLIN LOIC 00:40:33 SEM 48 00:08:21 00:08:21 ATHLETISME CLUB OUTREAU 14,797 04:03
85 64 PERARD VALENTIN 00:40:34 CAM 5 00:08:22 00:07:11 TEAM TRAIL 62 14,790 04:03
86 345 LE SCIELLOUR BRUNO 00:40:39 V2M 3 00:08:27 00:04:29 LE DRAPEAU 14,760 04:04
87 164 CALOIN WILLIAM 00:40:43 V1M 25 00:08:31 00:07:53 ATHLETISME CLUB OUTREAU 14,736 04:04
88 300 CARRE SEBASTIEN 00:40:46 SEM 49 00:08:34 00:08:34 NON LICENCIE 14,718 04:05
89 396 BATTESTI DAVID 00:40:48 SEM 50 00:08:36 00:08:36 NON LICENCIE 14,706 04:05
90 216 VANDERSTRAETEN KARINE 00:40:48 V1F 2 00:08:36 00:02:25 COURIR A GRAVELINES 14,706 04:05
91 517 NEMPONT FREDERIC 00:40:49 V1M 26 00:08:37 00:07:59 NON LICENCIE 14,700 04:05
92 13 DIEVAL JACQUES 00:40:50 V1M 27 00:08:38 00:08:00 NON LICENCIE 14,694 04:05
93 496 TOROSSIAN FRANCOIS 00:40:55 SEM 51 00:08:43 00:08:43 NON LICENCIE 14,664 04:05
94 83 KUPCZYK MARIAN 00:40:57 SEM 52 00:08:45 00:08:45 NON LICENCIE 14,652 04:06
95 575 GOEURY CHARLES-HENRI 00:40:58 SEM 53 00:08:46 00:08:46 NON LICENCIE 14,646 04:06
96 36 CAPPE ALEXANDRE 00:40:59 ESM 3 00:08:47 00:06:02 NON LICENCIE 14,640 04:06
97 29 DANGLETERRE DIMITRI 00:41:09 SEM 54 00:08:57 00:08:57 NON LICENCIE 14,581 04:07
98 248 HOLLEBECQUE MARTIN 00:41:11 SEM 55 00:08:59 00:08:59 WIMEREUX RUNNING CLUB 14,569 04:07
99 295 GRESSIER OLIVIER 00:41:12 V1M 28 00:09:00 00:08:22 FREVENT OLYMPIC CLUB 14,563 04:07
100 257 TILLIER LUDOVIC 00:41:12 SEM 56 00:09:00 00:09:00 WIMEREUX RUNNING CLUB 14,563 04:07
101 65 HAUTECOEUR ALBIN 00:41:12 SEM 57 00:09:00 00:09:00 NON LICENCIE 14,563 04:07
102 244 DUMONT LUDOVIC 00:41:16 SEM 58 00:09:04 00:09:04 WIMEREUX RUNNING CLUB 14,540 04:08
103 228 HERLANGE EMMANUEL 00:41:19 SEM 59 00:09:07 00:09:07 NON LICENCIE 14,522 04:08
104 409 ANTHONIOZ FABIEN 00:41:19 SEM 60 00:09:07 00:09:07 CULTURISME CLUB 14,522 04:08
105 470 GERARD PHILIPPE 00:41:20 V2M 4 00:09:08 00:05:10 ATHLETISME CLUB OUTREAU 14,516 04:08
106 303 BARROIS CEDRIC 00:41:25 SEM 61 00:09:13 00:09:13 ATHLETIQUE CLUB CAPELLOIS 14,487 04:09
107 287 POCHET AURELIEN 00:41:27 SEM 62 00:09:15 00:09:15 BOULOGNE ATHLETIQUE CLUB 14,475 04:09
108 297 DELAVIEZ JEAN-MARC 00:41:28 V2M 5 00:09:16 00:05:18 FREVENT OLYMPIC CLUB 14,469 04:09
109 267 DUFOUR ANTOINE 00:41:33 ESM 4 00:09:21 00:06:36 CS NESLES 14,440 04:09
110 10 DELATTRE JOHANN 00:41:39 SEM 63 00:09:27 00:09:27 TEAM RAKLETTE 14,406 04:10
111 479 LEMAITRE LAURENT 00:41:39 V1M 29 00:09:27 00:08:49 NON LICENCIE 14,406 04:10
112 187 BORDEZ FRANCK 00:41:46 V2M 6 00:09:34 00:05:36 SPORT PLUS 14,366 04:11
113 533 ROBILLARD CYRIL 00:41:48 SEM 64 00:09:36 00:09:36 NON LICENCIE 14,354 04:11
114 480 GOURNAY DAVID 00:41:48 SEM 65 00:09:36 00:09:36 NON LICENCIE 14,354 04:11
115 439 GRARE JULIEN 00:41:49 CAM 6 00:09:37 00:08:26 MARQUISE ATHLETISME 14,348 04:11
116 58 VILLETTE FRANCIS 00:41:54 V2M 7 00:09:42 00:05:44 NON LICENCIE 14,320 04:11
117 515 POUILLY KEVIN 00:41:56 CAM 7 00:09:44 00:08:33 TEAM TRAIL 62 14,308 04:12
118 552 LANGLOIS FREDERIC 00:41:56 V1M 30 00:09:44 00:09:06 ATHLETIQUE CLUB CAPELLOIS 14,308 04:12
119 152 SINNAEVE WILLY 00:41:57 V1M 31 00:09:45 00:09:07 ATHLETISME CLUB OUTREAU 14,303 04:12
120 498 PHILIS JACQUES 00:41:59 V3M 1 00:09:47 00:00:00 TOUQUET OPALE ATHLETISME 14,291 04:12
121 531 BOUVOT CYRILLE 00:42:00 SEM 66 00:09:48 00:09:48 NON LICENCIE 14,286 04:12
122 41 VERBREGUE MATTHIEU 00:42:03 SEM 67 00:09:51 00:09:51 NON LICENCIE 14,269 04:12
123 137 JUSTIN FREDERIC 00:42:03 SEM 68 00:09:51 00:09:51 NON LICENCIE 14,269 04:12
124 421 SOU-AH-Y ALEXIS 00:42:07 JUM 3 00:09:55 00:03:43 NON LICENCIE 14,246 04:13
125 379 VANDENABEELE VIRGINIE 00:42:08 SEF 2 00:09:56 00:02:18 A.S. MARCK 14,241 04:13
126 49 LEGRAND EDDY 00:42:09 SEM 69 00:09:57 00:09:57 NON LICENCIE 14,235 04:13
127 170 BOBEE NATHALIE 00:42:12 V1F 3 00:10:00 00:03:49 ATHLETISME CLUB OUTREAU 14,218 04:13
128 334 HACQUEL MICHEL 00:42:20 V1M 32 00:10:08 00:09:30 LE DRAPEAU 14,173 04:14
129 414 DUFOUR JONATHAN 00:42:22 SEM 70 00:10:10 00:10:10 AS - Mark Athlétisme 14,162 04:14
130 254 RYCKEWAERT XAVIER 00:42:23 SEM 71 00:10:11 00:10:11 WIMEREUX RUNNING CLUB 14,157 04:14
131 51 MAGNIER OLIVIER 00:42:29 SEM 72 00:10:17 00:10:17 NON LICENCIE 14,123 04:15
132 420 MOUNINE SLIMANE 00:42:31 SEM 73 00:10:19 00:10:19 NON LICENCIE 14,112 04:15
133 317 DUCROCQ YVES 00:42:36 V2M 8 00:10:24 00:06:26 NON LICENCIE 14,085 04:16
134 284 GODART JEAN-CHRISTOPHE 00:42:37 V1M 33 00:10:25 00:09:47 NON LICENCIE 14,079 04:16
135 524 JDURIEZ JONATHAN 00:42:41 SEM 74 00:10:29 00:10:29 NON LICENCIE 14,057 04:16
136 503 PIENTON CEDRIC 00:42:43 SEM 75 00:10:31 00:10:31 LE DRAPEAU 14,046 04:16
137 500 MOUSSAY LAURENT 00:42:44 V1M 34 00:10:32 00:09:54 NON LICENCIE 14,041 04:16
138 483 LEBAS ERIC 00:42:47 V1M 35 00:10:35 00:09:57 TEAM TRAIL 62 14,024 04:17
139 304 BARROIS CELINE 00:42:48 SEF 3 00:10:36 00:02:58 ATHLETIQUE CLUB CAPELLOIS 14,019 04:17
140 564 GIGADEN FRANCK 00:42:50 V1M 36 00:10:38 00:10:00 NON LICENCIE 14,008 04:17
141 353 PROTIN OLIVIER 00:42:51 V1M 37 00:10:39 00:10:01 PATRIOTES DE GUINES 14,002 04:17
142 205 HADOUX ALAIN 00:42:54 SEM 76 00:10:42 00:10:42 SAINT MARTIN ATHLETISME 13,986 04:17
143 203 BRICHE ERIC 00:42:56 V2M 9 00:10:44 00:06:46 SAINT MARTIN ATHLETISME 13,975 04:18
144 348 DAMIENS PHILIPPE 00:42:58 V1M 38 00:10:46 00:10:08 LE DRAPEAU 13,964 04:18
145 59 LIMOUSIN STEPHANE 00:43:04 V1M 39 00:10:52 00:10:14 NON LICENCIE 13,932 04:18
146 72 ROCHE BERNARD 00:43:05 V2M 10 00:10:53 00:06:55 NON LICENCIE 13,926 04:19
147 447 PAVY FREDERIC 00:43:07 V1M 40 00:10:55 00:10:17 NON LICENCIE 13,916 04:19
148 112 RINGOT MICKAEL 00:43:07 SEM 77 00:10:55 00:10:55 NON LICENCIE 13,916 04:19
149 238 BALY SYLVAIN 00:43:09 SEM 78 00:10:57 00:10:57 NON LICENCIE 13,905 04:19
150 6 CRETON JULIEN 00:43:10 SEM 79 00:10:58 00:10:58 NON LICENCIE 13,900 04:19
151 482 MALLIOPOULOS XAVIER 00:43:12 V2M 11 00:11:00 00:07:02 BERCK A C O 13,889 04:19
152 499 DELATTAIGNANT ARNAUD 00:43:12 V1M 41 00:11:00 00:10:22 NON LICENCIE 13,889 04:19
153 568 RATEL FREDERIC 00:43:13 V1M 42 00:11:01 00:10:23 NON LICENCIE 13,884 04:19
154 452 DACHICOURT BENOIT 00:43:13 SEM 80 00:11:01 00:11:01 NON LICENCIE 13,884 04:19
155 403 HAVART GUILLAUME 00:43:13 ESM 5 00:11:01 00:08:16 NON LICENCIE 13,884 04:19
156 404 DOUILLER VINCENT 00:43:14 V1M 43 00:11:02 00:10:24 NON LICENCIE 13,878 04:19
157 549 ETIENNE LEO 00:43:14 JUM 4 00:11:02 00:04:50 NON LICENCIE 13,878 04:19
158 178 CHOQUET GAETAN 00:43:15 SEM 81 00:11:03 00:11:03 COLEMBERT 13,873 04:20
159 316 SAUVAGE LAURENT 00:43:16 V1M 44 00:11:04 00:10:26 ATHLETIQUE CLUB CAPELLOIS 13,867 04:20
160 236 CHAMPION BRUNO 00:43:17 V1M 45 00:11:05 00:10:27 NON LICENCIE 13,862 04:20
161 262 FOURNY JEROME 00:43:17 V1M 46 00:11:05 00:10:27 WIMEREUX RUNNING CLUB 13,862 04:20
162 120 LAURENT JOCELYN 00:43:18 V2M 12 00:11:06 00:07:08 NON LICENCIE 13,857 04:20
163 253 RIVET JEAN-FRANCOIS 00:43:19 V1M 47 00:11:07 00:10:29 WIMEREUX RUNNING CLUB 13,851 04:20
164 256 SPILMONT NICOLAS 00:43:19 SEM 82 00:11:07 00:11:07 WIMEREUX RUNNING CLUB 13,851 04:20
165 364 MINARD MATTHIEU 00:43:19 SEM 83 00:11:07 00:11:07 ATHLETISME CLUB OUTREAU 13,851 04:20
166 360 BATILLIOT DOMINIQUE 00:43:20 V1F 4 00:11:08 00:04:57 PATRIOTES DE GUINES 13,846 04:20
167 418 LAMIRAND ALINE 00:43:20 SEF 4 00:11:08 00:03:30 A.S. MARCK 13,846 04:20
168 19 RIVET NICOLAS 00:43:22 V1M 48 00:11:10 00:10:32 TEAM RAKLETTE 13,836 04:20
169 91 BRIMEUX LUDOVIC 00:43:23 SEM 84 00:11:11 00:11:11 AMICALE HOSPITALIERS BOULOGNE 13,830 04:20
170 534 LEBAS JULIEN 00:43:25 SEM 85 00:11:13 00:11:13 A.S. MARCK 13,820 04:20
171 513 GALLEZ JEROME 00:43:27 V1M 49 00:11:15 00:10:37 ATHLETISME CLUB OUTREAU 13,809 04:21
172 195 PERARD FREDDY 00:43:29 V2M 13 00:11:17 00:07:19 SAINT MARTIN ATHLETISME 13,798 04:21
173 522 CROMBEZ SEBASTIEN 00:43:32 SEM 86 00:11:20 00:11:20 NON LICENCIE 13,783 04:21
174 281 DOUCHAIN SEBASTIEN 00:43:35 V1M 50 00:11:23 00:10:45 NON LICENCIE 13,767 04:22
175 391 COLIER JEREMY 00:43:41 SEM 87 00:11:29 00:11:29 NON LICENCIE 13,735 04:22
176 50 BAHEUX JEAN MICHEL 00:43:41 V3M 2 00:11:29 00:01:42 NON LICENCIE 13,735 04:22
177 309 LEBON RUDY 00:43:42 SEM 88 00:11:30 00:11:30 ATHLETIQUE CLUB CAPELLOIS 13,730 04:22
178 305 BREQUEVILLE LIONEL 00:43:43 V1M 51 00:11:31 00:10:53 ATHLETIQUE CLUB CAPELLOIS 13,725 04:22
179 126 PAINSET NICOLAS 00:43:43 V1M 52 00:11:31 00:10:53 NON LICENCIE 13,725 04:22
180 340 CHOUROT LUCIEN 00:43:44 V2M 14 00:11:32 00:07:34 LE DRAPEAU 13,720 04:22
181 471 BADON EMMANUEL 00:43:44 SEM 89 00:11:32 00:11:32 NON LICENCIE 13,720 04:22
182 277 LEGAGNEUR GAETAN 00:43:46 SEM 90 00:11:34 00:11:34 NON LICENCIE 13,709 04:23
183 542 LEFEVRE PHILIPPE 00:43:47 V1M 53 00:11:35 00:10:57 SAINT MARTIN ATHLETISME 13,704 04:23
184 89 BREBION GUILLAUME 00:43:49 SEM 91 00:11:37 00:11:37 AMICALE HOSPITALIERS BOULOGNE 13,693 04:23
185 11 CAGNIART THOMAS 00:43:49 SEM 92 00:11:37 00:11:37 TEAM RAKLETTE 13,693 04:23
186 428 LOBEZ BAPTISTE 00:43:52 SEM 93 00:11:40 00:11:40 NON LICENCIE 13,678 04:23
187 78 CARON KEVIN 00:43:53 SEM 94 00:11:41 00:11:41 SC ABBEVILLE 13,673 04:23
188 488 DAGNEAUX FABIEN 00:43:53 V1M 54 00:11:41 00:11:03 NON LICENCIE 13,673 04:23
189 307 FARNWORTH GRAEME 00:43:55 V1M 55 00:11:43 00:11:05 ATHLETIQUE CLUB CAPELLOIS 13,662 04:24
190 197 LEFRANC OLIVIER 00:43:57 V1M 56 00:11:45 00:11:07 SAINT MARTIN ATHLETISME 13,652 04:24
191 184 LIVENAIS FRANCK 00:44:00 V1M 57 00:11:48 00:11:10 NON LICENCIE 13,636 04:24
192 194 SIABAS JEAN-MICHEL 00:44:05 V2M 15 00:11:53 00:07:55 SAINT MARTIN ATHLETISME 13,611 04:25
193 454 LEMAY ERIC 00:44:07 V2M 16 00:11:55 00:07:57 NON LICENCIE 13,600 04:25
194 223 GOBERT MAXIME 00:44:10 SEM 95 00:11:58 00:11:58 CS NESLES 13,585 04:25
195 308 HOLUIGUE FREDERIC 00:44:17 SEM 96 00:12:05 00:12:05 ATHLETIQUE CLUB CAPELLOIS 13,549 04:26
196 323 GRESSIER YANNICK 00:44:22 V1M 58 00:12:10 00:11:32 LE DRAPEAU 13,524 04:26
197 351 QUENNEHEN HERVE 00:44:23 V1M 59 00:12:11 00:11:33 PATRIOTES DE GUINES 13,519 04:26
198 408 BAY FREDERIC 00:44:24 SEM 97 00:12:12 00:12:12 NON LICENCIE 13,514 04:26
199 60 DANDRE ALBANE 00:44:25 SEF 5 00:12:13 00:04:35 ELAN 59 13,508 04:27
200 472 VANDEN NESTE JEAN-JACQUES 00:44:25 V3M 3 00:12:13 00:02:26 NON LICENCIE 13,508 04:27
201 292 LELEU JEAN-FRANCOIS 00:44:30 V2M 17 00:12:18 00:08:20 NON LICENCIE 13,483 04:27
202 559 CARPENTIER NICOLAS 00:44:31 SEM 98 00:12:19 00:12:19 ATHLETISME CLUB OUTREAU 13,478 04:27
203 419 ROLAT RUDY 00:44:35 SEM 99 00:12:23 00:12:23 NON LICENCIE 13,458 04:27
204 341 NAJMI AICHA 00:44:36 V1F 5 00:12:24 00:06:13 LE DRAPEAU 13,453 04:28
205 32 HANON JEAN-PIERRE 00:44:37 V2M 18 00:12:25 00:08:27 LE DRAPEAU 13,448 04:28
206 151 JUSTIN LUCIEN 00:44:39 V3M 4 00:12:27 00:02:40 ATHLETISME CLUB OUTREAU 13,438 04:28
207 231 HIVART RAPHAEL 00:44:46 SEM 100 00:12:34 00:12:34 NON LICENCIE 13,403 04:29
208 87 BALY ADRIEN 00:44:48 SEM 101 00:12:36 00:12:36 NON LICENCIE 13,393 04:29
209 469 DELATTRE BRUNO 00:44:50 V2M 19 00:12:38 00:08:40 NON LICENCIE 13,383 04:29
210 146 ABRAS EMMANUEL 00:44:53 V1M 60 00:12:41 00:12:03 NON LICENCIE 13,368 04:29
211 523 BARBAUT ISABELLE 00:44:56 V1F 6 00:12:44 00:06:33 A.S. MARCK 13,353 04:30
212 7 SALLIET FREDERIC 00:45:00 V1M 61 00:12:48 00:12:10 CULTURISME CLUB 13,333 04:30
213 271 ROBA VALENTIN 00:45:01 CAM 8 00:12:49 00:11:38 SPORT EVASION DES 2 CAPS 13,328 04:30
214 507 LEJEUNE FRANCK 00:45:01 V1M 62 00:12:49 00:12:11 NON LICENCIE 13,328 04:30
215 143 CAULIER FREDDY 00:45:04 V2M 20 00:12:52 00:08:54 ATHLETISME CLUB OUTREAU 13,314 04:30
216 335 CARDON BENOIT 00:45:07 CAM 9 00:12:55 00:11:44 LE DRAPEAU 13,299 04:31
217 165 MAILLOT JEAN-LOUIS 00:45:13 V2M 21 00:13:01 00:09:03 ATHLETISME CLUB OUTREAU 13,269 04:31
218 293 BODEL MAXIME 00:45:15 SEM 102 00:13:03 00:13:03 NON LICENCIE 13,260 04:31
219 217 CRETEL LAURENT 00:45:16 V1M 63 00:13:04 00:12:26 C.S. NESLES 13,255 04:32
220 502 NOEL DOMINIQUE 00:45:17 V3M 5 00:13:05 00:03:18 NON LICENCIE 13,250 04:32
221 444 LIBERT ERIC 00:45:20 V2M 22 00:13:08 00:09:10 ATHLETISME CLUB OUTREAU 13,235 04:32
222 474 DUMINIL ENZO 00:45:22 ESM 6 00:13:10 00:10:25 NON LICENCIE 13,226 04:32
223 397 PAYEN JEREMIE 00:45:22 V1M 64 00:13:10 00:12:32 NON LICENCIE 13,226 04:32
224 369 DELOSIERE CYRILLE 00:45:22 SEM 103 00:13:10 00:13:10 NON LICENCIE 13,226 04:32
225 17 CAMPAGNE SERGE 00:45:23 V1M 65 00:13:11 00:12:33 NON LICENCIE 13,221 04:32
226 182 ROUSSEL STEPHANE 00:45:24 V2M 23 00:13:12 00:09:14 COLEMBERT 13,216 04:32
227 189 FLOURET LAUGIER STEPHANIE 00:45:25 SEF 6 00:13:13 00:05:35 SPORT PLUS 13,211 04:32
228 443 CANNECON BENJAMIN 00:45:25 CAM 10 00:13:13 00:12:02 TOA 13,211 04:32
229 544 NORMANT REMI 00:45:26 SEM 104 00:13:14 00:13:14 NON LICENCIE 13,206 04:33
230 445 KAMEL LAID 00:45:29 SEM 105 00:13:17 00:13:17   13,192 04:33
231 417 TINTILLIER ERIC 00:45:29 SEM 106 00:13:17 00:13:17 NON LICENCIE 13,192 04:33
232 116 PODEVIN JEAN-PIERRE 00:45:29 V2M 24 00:13:17 00:09:19 ATHLETISME CLUB OUTREAU 13,192 04:33
233 166 BELLANGER LUCIEN 00:45:31 ESM 7 00:13:19 00:10:34 ATHLETISME CLUB OUTREAU 13,182 04:33
234 487 TINTILLIER ERIC 00:45:31 V1M 66 00:13:19 00:12:41 COLEMBERT 13,182 04:33
235 492 DEMILLY CEDRIC 00:45:31 SEM 107 00:13:19 00:13:19 NON LICENCIE 13,182 04:33
236 556 IHABARCHEN SOFIANE 00:45:32 SEM 108 00:13:20 00:13:20 NON LICENCIE 13,177 04:33
237 245 FONTAINE XAVIER 00:45:34 V2M 25 00:13:22 00:09:24 WIMEREUX RUNNING CLUB 13,168 04:33
238 422 HAGNERE SEBASTIEN 00:45:37 SEM 109 00:13:25 00:13:25 NON LICENCIE 13,153 04:34
239 199 HARDOIN JEAN-FRANCOIS 00:45:45 V1M 67 00:13:33 00:12:55 SAINT MARTIN ATHLETISME 13,115 04:34
240 144 GIGADEN MATHILDE 00:45:49 SEF 7 00:13:37 00:05:59 NON LICENCIE 13,096 04:35
241 246 GARENAUX FRANCOIS 00:45:49 V1M 68 00:13:37 00:12:59 WIMEREUX RUNNING CLUB 13,096 04:35
242 356 HENQUEZ YVES 00:45:51 V4M 1 00:13:39 00:00:00 PATRIOTES DE GUINES 13,086 04:35
243 412 ROLLAND REMI 00:45:52 SEM 110 00:13:40 00:13:40 NON LICENCIE 13,081 04:35
244 15 PAQUE ANTHONY 00:45:55 SEM 111 00:13:43 00:13:43 NON LICENCIE 13,067 04:36
245 167 DELOTTE GERARD 00:45:57 V2M 26 00:13:45 00:09:47 ATHLETISME CLUB OUTREAU 13,058 04:36
246 468 MOLMY DAVID 00:46:00 V1M 69 00:13:48 00:13:10 ATHLETISME CLUB OUTREAU 13,043 04:36
247 111 NUNS HUBERT 00:46:01 CAM 11 00:13:49 00:12:38 NON LICENCIE 13,039 04:36
248 532 LEROUGE DAVID 00:46:04 V1M 70 00:13:52 00:13:14 C.S. NESLES 13,025 04:36
249 218 THOMAS LUDIVINE 00:46:05 SEF 8 00:13:53 00:06:15 NON LICENCIE 13,020 04:37
250 44 GAMBART GAETAN 00:46:07 SEM 112 00:13:55 00:13:55 NON LICENCIE 13,010 04:37
251 510 RAY ISABELLE 00:46:10 SEF 9 00:13:58 00:06:20 CULTURE DANSE ETAPLES 12,996 04:37
252 331 XX HUGO 00:46:14 SEM 113 00:14:02 00:14:02 NON LICENCIE 12,978 04:37
253 571 MANIER WILLIAM 00:46:16 SEM 114 00:14:04 00:14:04 Culturisme Club Boulogne 12,968 04:38
254 354 COULOMBEL SYLVIE 00:46:18 SEF 10 00:14:06 00:06:28 PATRIOTES DE GUINES 12,959 04:38
255 210 KORBER CHRISTIAN 00:46:20 V3M 6 00:14:08 00:04:21 SAINT MARTIN ATHLETISME 12,950 04:38
256 53 ANSEL DIDIER 00:46:23 SEM 115 00:14:11 00:14:11 NON LICENCIE 12,936 04:38
257 519 LAMARE CATHIE 00:46:25 V1F 7 00:14:13 00:08:02 A.S. MARCK 12,926 04:39
258 431 FORIENT PIERRICK 00:46:27 V1M 71 00:14:15 00:13:37 T2 CAP ATHLON 12,917 04:39
259 362 COPPIN ANNE-FRANCE 00:46:28 SEF 11 00:14:16 00:06:38 NON LICENCIE 12,912 04:39
260 328 DOCQUOIS MICHEL 00:46:30 V1M 72 00:14:18 00:13:40 LE DRAPEAU 12,903 04:39
261 411 HACHE DIDIER 00:46:31 V2M 27 00:14:19 00:10:21 NON LICENCIE 12,899 04:39
262 142 MAHIEU CEDRIC 00:46:33 SEM 116 00:14:21 00:14:21 NON LICENCIE 12,889 04:39
263 346 BERNARD SYLVIE 00:46:37 V1F 8 00:14:25 00:08:14 LE DRAPEAU 12,871 04:40
264 373 DEGARDIN DAVID 00:46:42 V1M 73 00:14:30 00:13:52 NON LICENCIE 12,848 04:40
265 325 PETA JEANNE ESTELLE 00:46:46 V1F 9 00:14:34 00:08:23 LE DRAPEAU 12,830 04:41
266 393 GUERVILLE XAVIER 00:46:48 V1M 74 00:14:36 00:13:58 NON LICENCIE 12,821 04:41
267 276 DUPONT PATRICK 00:46:50 V2M 28 00:14:38 00:10:40 NORFRIGO 12,811 04:41
268 540 LOUIS SONIA 00:46:53 V1F 10 00:14:41 00:08:30 NON LICENCIE 12,798 04:41
269 541 LEGRAS ERIC 00:46:54 V2M 29 00:14:42 00:10:44 NON LICENCIE 12,793 04:41
270 12 LEGRAND JOSE 00:46:55 SEM 117 00:14:43 00:14:43 NON LICENCIE 12,789 04:41
271 388 LEROY FRANCK 00:46:56 V1M 75 00:14:44 00:14:06 NON LICENCIE 12,784 04:42
272 342 MARIETTE YVETTE 00:47:00 V2F 1 00:14:48 00:00:00 LE DRAPEAU 12,766 04:42
273 338 INGOUF NATHALIE 00:47:00 V1F 11 00:14:48 00:08:37 LE DRAPEAU 12,766 04:42
274 516 HERBEZ ALAIN 00:47:03 V2M 30 00:14:51 00:10:53 NON LICENCIE 12,752 04:42
275 318 WIECZOREK THIERRY 00:47:04 V2M 31 00:14:52 00:10:54 USBCO 12,748 04:42
276 392 COPPIN ROMAIN 00:47:07 SEM 118 00:14:55 00:14:55 NON LICENCIE 12,734 04:43
277 268 LANGAGNE GAETAN 00:47:10 SEM 119 00:14:58 00:14:58 ATHLETISME CLUB OUTREAU 12,721 04:43
278 537 KUBERSKI CHARLES 00:47:14 CAM 12 00:15:02 00:13:51 NON LICENCIE 12,703 04:43
279 435 PERNIN PATRICE 00:47:15 V2M 32 00:15:03 00:11:05 NON LICENCIE 12,698 04:44
280 446 COMPIEGNE STEPHANE 00:47:17 SEM 120 00:15:05 00:15:05 NON LICENCIE 12,689 04:44
281 259 VILLETTE FREDERIC 00:47:21 SEM 121 00:15:09 00:15:09 WIMEREUX RUNNING CLUB 12,672 04:44
282 275 CHEVALIER ETIENNE 00:47:26 ESM 8 00:15:14 00:12:29 NORFRIGO 12,649 04:45
283 416 MAXANT CHRISTOPHER 00:47:28 SEM 122 00:15:16 00:15:16 NON LICENCIE 12,640 04:45
284 237 DUCROCQ VALENTIN 00:47:30 CAM 13 00:15:18 00:14:07 NON LICENCIE 12,632 04:45
285 415 MAXANT YOHAN 00:47:31 SEM 123 00:15:19 00:15:19 NON LICENCIE 12,627 04:45
286 543 LEHMANN PHILIPPE 00:47:32 V2M 33 00:15:20 00:11:22 NON LICENCIE 12,623 04:45
287 352 BECQUET KARINE 00:47:32 V1F 12 00:15:20 00:09:09 PATRIOTES DE GUINES 12,623 04:45
288 114 DERVILLE FRANCOIS 00:47:35 V2M 34 00:15:23 00:11:25 BERCK A C O 12,609 04:46
289 95 FLEURY CEDRIC 00:47:37 V1M 76 00:15:25 00:14:47 AMICALE HOSPITALIERS BOULOGNE 12,601 04:46
290 370 GRANDIN CHRISTOPHE 00:47:38 SEM 124 00:15:26 00:15:26 NON LICENCIE 12,596 04:46
291 359 ETCHEPARE JEAN-PHILIPPE 00:47:42 SEM 125 00:15:30 00:15:30 PATRIOTES DE GUINES 12,579 04:46
292 427 HENON SARAH 00:47:43 SEF 12 00:15:31 00:07:53 NON LICENCIE 12,574 04:46
293 188 BRIDOUX CHRISTINE 00:47:43 V1F 13 00:15:31 00:09:20 SPORT PLUS 12,574 04:46
294 460 COUVELARD OLIVIER 00:47:46 V1M 77 00:15:34 00:14:56 NON LICENCIE 12,561 04:47
295 312 MAGNIER GERALD 00:47:47 V1M 78 00:15:35 00:14:57 ATHLETIQUE CLUB CAPELLOIS 12,557 04:47
296 286 MINET CORENTINE 00:47:50 CAF 1 00:15:38 00:00:00 BOULOGNE ATHLETIQUE CLUB 12,544 04:47
297 563 SAILLY FABIEN 00:47:53 SEM 126 00:15:41 00:15:41 NON LICENCIE 12,530 04:47
298 570 LEPECUCHELLE JULIEN 00:47:56 SEM 127 00:15:44 00:15:44 Culturisme Club Boulogne 12,517 04:48
299 509 DELAIRE GREGORY 00:47:56 SEM 128 00:15:44 00:15:44 NON LICENCIE 12,517 04:48
300 22 LANCE SYLVAIN 00:47:59 SEM 129 00:15:47 00:15:47 NON LICENCIE 12,504 04:48
301 296 COHEN-SOLAL LAURENCE 00:48:01 V1F 14 00:15:49 00:09:38 JOGGING CLUB LICQUOIS 12,496 04:48
302 192 CHARTRELLE CHRISTOPHE 00:48:03 SEM 130 00:15:51 00:15:51 NON LICENCIE 12,487 04:48
303 181 MAILLOT FLORENCE 00:48:09 SEF 13 00:15:57 00:08:19 COLEMBERT 12,461 04:49
304 201 DEFOSSE ALEXANDRE 00:48:13 SEM 131 00:16:01 00:16:01 SAINT MARTIN ATHLETISME 12,444 04:49
305 209 MAQUINGHEN CELINE 00:48:13 SEF 14 00:16:01 00:08:23 SAINT MARTIN ATHLETISME 12,444 04:49
306 453 POSTA JULIETTE 00:48:15 ESF 1 00:16:03 00:00:00 NON LICENCIE 12,435 04:50
307 489 DELPIERRE FREDERIC 00:48:20 V2M 35 00:16:08 00:12:10 NON LICENCIE 12,414 04:50
308 24 BERGAMASCO STEPHANE 00:48:21 V1M 79 00:16:09 00:15:31 TEAM RAKLETTE 12,410 04:50
309 464 MARCQ GEOFFREY 00:48:28 SEM 132 00:16:16 00:16:16 NON LICENCIE 12,380 04:51
310 31 HANON LILIANE 00:48:30 V2F 2 00:16:18 00:01:30 LE DRAPEAU 12,371 04:51
311 358 JOLY DAVID 00:48:31 V1M 80 00:16:19 00:15:41 PATRIOTES DE GUINES 12,367 04:51
312 177 TRUNFIO ALESSIO 00:48:33 SEM 133 00:16:21 00:16:21 NON LICENCIE 12,358 04:51
313 497 DEPERLECQUE MICKAEL 00:48:36 SEM 134 00:16:24 00:16:24 NON LICENCIE 12,346 04:52
314 314 REGNIER CHRISTINE 00:48:42 V1F 15 00:16:30 00:10:19 ATHLETIQUE CLUB CAPELLOIS 12,320 04:52
315 34 BIGAND ALEXIS 00:48:47 ESM 9 00:16:35 00:13:50 NON LICENCIE 12,299 04:53
316 1 BLIN SYLVIE 00:48:48 SEF 15 00:16:36 00:08:58 US VALENCIENNE 12,295 04:53
317 481 GUENOUX BERTRAND 00:48:52 SEM 135 00:16:40 00:16:40 NON LICENCIE 12,278 04:53
318 134 DEBAS GERARD 00:48:53 V3M 7 00:16:41 00:06:54 US SAMER CYCLO 12,274 04:53
319 375 MAQUET STEPHANE 00:48:57 V1M 81 00:16:45 00:16:07 NON LICENCIE 12,257 04:54
320 196 PIHL JOEL 00:49:03 V3M 8 00:16:51 00:07:04 SAINT MARTIN ATHLETISME 12,232 04:54
321 107 MAILLARD BEATRICE 00:49:04 V1F 16 00:16:52 00:10:41 NON LICENCIE 12,228 04:54
322 343 LEPERCQ FLORENT 00:49:05 V2M 36 00:16:53 00:12:55 LE DRAPEAU 12,224 04:55
323 372 MISEROLLE MATTHIEU 00:49:08 SEM 136 00:16:56 00:16:56 NON LICENCIE 12,212 04:55
324 272 COEUGNIET LAURENT 00:49:10 V1M 82 00:16:58 00:16:20 NON LICENCIE 12,203 04:55
325 265 RUMEAU MATHIEU 00:49:10 SEM 137 00:16:58 00:16:58 NON LICENCIE 12,203 04:55
326 429 DULOT MARION 00:49:10 SEF 16 00:16:58 00:09:20 NON LICENCIE 12,203 04:55
327 127 MAGNIER BEATRICE 00:49:13 V2F 3 00:17:01 00:02:13 PINK LADIES 12,191 04:55
328 457 MARLIERE JEAN PIERRE 00:49:21 V1M 83 00:17:09 00:16:31 NON LICENCIE 12,158 04:56
329 387 CAGNEAUX PERRINE 00:49:22 V1F 17 00:17:10 00:10:59 NON LICENCIE 12,154 04:56
330 547 BATEMAN XAVIER 00:49:23 V1M 84 00:17:11 00:16:33 NON LICENCIE 12,150 04:56
331 508 SAUVAGE CHARLIE 00:49:24 CAM 14 00:17:12 00:16:01 ENTENTE MARITIME ATHL. 12,146 04:56
332 191 TETARD ISABELLE 00:49:25 V1F 18 00:17:13 00:11:02 SPORT PLUS 12,142 04:57
333 190 SEGUIN DIDIER 00:49:25 V2M 37 00:17:13 00:13:15 SPORT PLUS 12,142 04:57
334 282 WEDIER HENRI 00:49:28 V1M 85 00:17:16 00:16:38 ATHLETISME CLUB OUTREAU 12,129 04:57
335 400 BERTHE PATRICK 00:49:31 V2M 38 00:17:19 00:13:21 NON LICENCIE 12,117 04:57
336 88 BERANGER JEAN-CHARLES 00:49:36 V2M 39 00:17:24 00:13:26 AMICALE HOSPITALIERS BOULOGNE 12,097 04:58
337 425 PLARD EMMANUEL 00:49:37 V1M 86 00:17:25 00:16:47 LE DRAPEAU 12,093 04:58
338 538 LOBEZ PHILIPPE 00:49:42 V1M 87 00:17:30 00:16:52 NON LICENCIE 12,072 04:58
339 539 BRABANT DIDIER 00:49:42 V1M 88 00:17:30 00:16:52 NON LICENCIE 12,072 04:58
340 344 GALLICE CHRISTINE 00:49:46 V1F 19 00:17:34 00:11:23 LE DRAPEAU 12,056 04:59
341 14 GINGUENE MARC 00:49:48 V1M 89 00:17:36 00:16:58 NON LICENCIE 12,048 04:59
342 43 LEDEZ FABRICE 00:49:52 V1M 90 00:17:40 00:17:02 NON LICENCIE 12,032 04:59
343 150 PLOUVIN ARNAUD 00:49:53 V1M 91 00:17:41 00:17:03 NON LICENCIE 12,028 04:59
344 90 BRIMEUX PIERRE 00:49:54 V3M 9 00:17:42 00:07:55 AMICALE HOSPITALIERS BOULOGNE 12,024 04:59
345 494 BLARY JEAN-PAUL 00:49:58 V3M 10 00:17:46 00:07:59 NON LICENCIE 12,008 05:00
346 526 MALFOY JEAN-PIERRE 00:49:58 V3M 11 00:17:46 00:07:59 SAINT MARTIN ATHLETISME 12,008 05:00
347 490 LEMAIRE LOIC 00:50:08 SEM 138 00:17:56 00:17:56 NON LICENCIE 11,968 05:01
348 70 BECUE LUCAS 00:50:08 CAM 15 00:17:56 00:16:45 NON LICENCIE 11,968 05:01
349 485 LAVERDURE PASCAL 00:50:09 V2M 40 00:17:57 00:13:59 NON LICENCIE 11,964 05:01
350 381 BAILLIEU CHRISTIAN 00:50:14 V1M 92 00:18:02 00:17:24 LE DRAPEAU 11,944 05:01
351 261 RAMONET MARC 00:50:20 V2M 41 00:18:08 00:14:10 WIMEREUX RUNNING CLUB 11,921 05:02
352 459 BALY BASTIEN 00:50:22 SEM 139 00:18:10 00:18:10 NON LICENCIE 11,913 05:02
353 355 PETIT DENEZ CHRISTELLE 00:50:23 V1F 20 00:18:11 00:12:00 PATRIOTES DE GUINES 11,909 05:02
354 441 VAN DOREN MICHEL 00:50:23 V3M 12 00:18:11 00:08:24 TOA 11,909 05:02
355 451 POSTA JEAN-FRANCOIS 00:50:33 V2M 42 00:18:21 00:14:23 NON LICENCIE 11,869 05:03
356 240 BAGANIER SANDY 00:50:36 V1F 21 00:18:24 00:12:13 WIMEREUX RUNNING CLUB 11,858 05:04
357 255 SPILMONT HELENE 00:50:36 SEF 17 00:18:24 00:10:46 WIMEREUX RUNNING CLUB 11,858 05:04
358 260 WILLIAMSON NATHALIE 00:50:36 V1F 22 00:18:24 00:12:13 WIMEREUX RUNNING CLUB 11,858 05:04
359 313 MANCHUELLE STEPHANE 00:50:47 V1M 93 00:18:35 00:17:57 ATHLETIQUE CLUB CAPELLOIS 11,815 05:05
360 558 BOCHENT MATTIEU 00:50:47 SEM 140 00:18:35 00:18:35 NON LICENCIE 11,815 05:05
361 569 DEBOVE LOIC 00:50:51 SEM 141 00:18:39 00:18:39 NON LICENCIE 11,799 05:05
362 450 HOLUIGUE SABINE 00:50:52 V1F 23 00:18:40 00:12:29 ATHLETIQUE CLUB CAPELLOIS 11,796 05:05
363 525 GRENON ERIC 00:50:53 V1M 94 00:18:41 00:18:03 NON LICENCIE 11,792 05:05
364 207 NEGRI PASCALE 00:50:54 V1F 24 00:18:42 00:12:31 SAINT MARTIN ATHLETISME 11,788 05:05
365 179 DUSSART MURIEL 00:50:58 V2F 4 00:18:46 00:03:58 COLEMBERT 11,772 05:06
366 484 LABBE TONY 00:51:00 V1M 95 00:18:48 00:18:10 NON LICENCIE 11,765 05:06
367 61 BEAUVOIS CORALIE 00:51:03 SEF 18 00:18:51 00:11:13 TOUQUET TRAIL NATURE 11,753 05:06
368 462 GOURNAY LAURENT 00:51:07 V1M 96 00:18:55 00:18:17 NON LICENCIE 11,738 05:07
369 347 BAILLY ISABELLE 00:51:12 V1F 25 00:19:00 00:12:49 LE DRAPEAU 11,719 05:07
370 251 LEJEUNE CHARLOTTE 00:51:12 SEF 19 00:19:00 00:11:22 WIMEREUX RUNNING CLUB 11,719 05:07
371 324 CODRON STEPHANE 00:51:14 V1M 97 00:19:02 00:18:24 LE DRAPEAU 11,711 05:07
372 224 LEFEBVRE DENISE 00:51:18 V3F 1 00:19:06 00:00:00 NON LICENCIE 11,696 05:08
373 557 MOREL FRANCOIS 00:51:18 SEM 142 00:19:06 00:19:06 NON LICENCIE 11,696 05:08
374 330 PAQUES ERIC 00:51:22 V2M 43 00:19:10 00:15:12 LE DRAPEAU 11,681 05:08
375 512 EVERAERE FREDERIC 00:51:23 V1M 98 00:19:11 00:18:33 NL 11,677 05:08
376 501 LEDOUX JEREMY 00:51:23 SEM 143 00:19:11 00:19:11 NON LICENCIE 11,677 05:08
377 574 DESCAMPS ROMAIN 00:51:28 SEM 144 00:19:16 00:19:16 TOUQUET OPALE ATHLETISME 11,658 05:09
378 528 DEVILLIERS GENEVIEVE 00:51:31 V2F 5 00:19:19 00:04:31 NON LICENCIE 11,647 05:09
379 406 CHESNEL JOSEPH 00:51:43 V4M 2 00:19:31 00:05:52 NON LICENCIE 11,602 05:10
380 133 MORZA YANICK 00:51:49 V1M 99 00:19:37 00:18:59 NON LICENCIE 11,579 05:11
381 263 CONTIER ISABELLE 00:51:53 SEF 20 00:19:41 00:12:03 WIMEREUX RUNNING CLUB 11,564 05:11
382 241 DUBRULLE FRANCK 00:51:54 V2M 44 00:19:42 00:15:44 WIMEREUX RUNNING CLUB 11,561 05:11
383 405 DEGROOTE MAGGY 00:51:57 SEF 21 00:19:45 00:12:07 NON LICENCIE 11,550 05:12
384 572 FODZO ERIC 00:52:03 V1M 100 00:19:51 00:19:13 LES FOULEES ARDRESIENNES 11,527 05:12
385 357 PLATIAU MARIE 00:52:09 SEF 22 00:19:57 00:12:19 PATRIOTES DE GUINES 11,505 05:13
386 183 MARIE PAUL 00:52:09 SEM 145 00:19:57 00:19:57 NON LICENCIE 11,505 05:13
387 125 LEDOUX DOMINIQUE 00:52:10 V2M 45 00:19:58 00:16:00 US POLICE ROUEN 11,502 05:13
388 45 CONDETTE JONATHAN 00:52:11 SEM 146 00:19:59 00:19:59 NON LICENCIE 11,498 05:13
389 124 LEDOUX THIERRY 00:52:11 V1M 101 00:19:59 00:19:21 NON LICENCIE 11,498 05:13
390 486 LEBON MAGALI 00:52:13 SEF 23 00:20:01 00:12:23 NON LICENCIE 11,491 05:13
391 535 MARIQUE PERRINE 00:52:13 CAF 2 00:20:01 00:04:23 COLEMBERT 11,491 05:13
392 147 MAHIEU JEAN MICHEL 00:52:15 V2M 46 00:20:03 00:16:05 NON LICENCIE 11,483 05:14
393 54 CLEQUIN RENE 00:52:16 V3M 13 00:20:04 00:10:17 SAINT MARTIN ATHLETISME 11,480 05:14
394 430 LEPRETRE JULIEN 00:52:16 SEM 147 00:20:04 00:20:04 NON LICENCIE 11,480 05:14
395 180 HOLUIGUE DAVID 00:52:19 SEM 148 00:20:07 00:20:07 COLEMBERT 11,469 05:14
396 108 MAILLARD GAETAN 00:52:25 V2M 47 00:20:13 00:16:15 NON LICENCIE 11,447 05:15
397 3 CLAEYS DAVID 00:52:27 SEM 149 00:20:15 00:20:15 NON LICENCIE 11,439 05:15
398 511 MAGNIER REGIS 00:52:37 V1M 102 00:20:25 00:19:47 CULTURE DANSE ETAPLES 11,403 05:16
399 476 SIMSOVIC GAEL 00:52:42 V1M 103 00:20:30 00:19:52 SAINT MARTIN ATHLETISME 11,385 05:16
400 395 BOURIEZ DOMINIQUE 00:52:44 SEM 150 00:20:32 00:20:32 JOGGING CLUB LICQUOIS 11,378 05:16
401 320 CHEUVA LOIC 00:52:50 V1M 104 00:20:38 00:20:00 WIMEREUX RUNNING CLUB 11,356 05:17
402 247 HOAREAU FREDERIQUE 00:52:51 V1F 26 00:20:39 00:14:28 WIMEREUX RUNNING CLUB 11,353 05:17
403 176 TRUNFIO PAOLA 00:52:56 CAF 3 00:20:44 00:05:06 NON LICENCIE 11,335 05:18
404 30 TRUNFIO VINCENT 00:52:56 V2M 48 00:20:44 00:16:46 NON LICENCIE 11,335 05:18
405 377 CAUPAIN CATHERINE 00:53:02 V1F 27 00:20:50 00:14:39 A.S. MARCK 11,314 05:18
406 458 BEUTIN ALEXANDRE 00:53:05 SEM 151 00:20:53 00:20:53 NON LICENCIE 11,303 05:18
407 131 ABDALLAH MANUEL 00:53:11 V1M 105 00:20:59 00:20:21 NON LICENCIE 11,282 05:19
408 436 CAFFIER GREGORY 00:53:15 SEM 152 00:21:03 00:21:03 NON LICENCIE 11,268 05:20
409 239 LAMPIN PATRICK 00:53:16 V2M 49 00:21:04 00:17:06 NON LICENCIE 11,264 05:20
410 258 VASSEUR MAITE 00:53:25 V3F 2 00:21:13 00:02:07 WIMEREUX RUNNING CLUB 11,232 05:21
411 461 GOURDIN FREDERIQUE 00:53:41 V1F 28 00:21:29 00:15:18 NON LICENCIE 11,177 05:22
412 426 DEMAY JEAN-FRANCOIS 00:53:44 V2M 50 00:21:32 00:17:34 NON LICENCIE 11,166 05:22
413 337 CARDON FRANCK 00:53:47 V1M 106 00:21:35 00:20:57 LE DRAPEAU 11,156 05:23
414 48 SEGUIN AURORE 00:53:47 SEF 24 00:21:35 00:13:57 NON LICENCIE 11,156 05:23
415 529 BUTEL JEAN-PIERRE 00:53:51 V2M 51 00:21:39 00:17:41   11,142 05:23
416 565 PARENT MARIELLE 00:53:54 V1F 29 00:21:42 00:15:31 TOA 11,132 05:23
417 100 PAPIN DOMINIQUE 00:53:56 V2F 6 00:21:44 00:06:56 AMICALE HOSPITALIERS BOULOGNE 11,125 05:24
418 506 LEFRANC PIERRE-JEAN 00:54:02 SEM 153 00:21:50 00:21:50 LE DRAPEAU 11,104 05:24
419 234 PROST ISABELLE 00:54:06 SEF 25 00:21:54 00:14:16 NON LICENCIE 11,091 05:25
420 389 RENAUX JEAN BAPTISTE 00:54:06 ESM 10 00:21:54 00:19:09 NON LICENCIE 11,091 05:25
421 280 REGNIER KATY 00:54:09 SEF 26 00:21:57 00:14:19 NON LICENCIE 11,080 05:25
422 269 MAGRIT SANDRA 00:54:12 V1F 30 00:22:00 00:15:49 SPORT EVASION DES 2 CAPS 11,070 05:25
423 566 CHAVALLE ALAIN 00:54:15 V1M 107 00:22:03 00:21:25 TOA 11,060 05:26
424 242 DUCROCQ CAROLE 00:54:18 V1F 31 00:22:06 00:15:55 WIMEREUX RUNNING CLUB 11,050 05:26
425 505 DEFRAITEUR PAULINE 00:54:30 SEF 27 00:22:18 00:14:40 LE DRAPEAU 11,009 05:27
426 382 LEMAIRE ANOUCHKA 00:54:31 SEF 28 00:22:19 00:14:41 WIMEREUX RUNNING CLUB 11,006 05:27
427 349 FAUQUEMBERGUE VERONIQUE 00:54:35 V1F 32 00:22:23 00:16:12 LE DRAPEAU 10,992 05:28
428 20 LOISEL VINCENT 00:54:36 V1M 108 00:22:24 00:21:46 TEAM RAKLETTE 10,989 05:28
429 560 EMERY JOEL 00:54:39 V2M 52 00:22:27 00:18:29 NON LICENCIE 10,979 05:28
430 322 BERKOUN LAETITIA 00:54:39 SEF 29 00:22:27 00:14:49 BOULOGNE ATHLETIQUE CLUB 10,979 05:28
431 504 HAMY PHILIPPE 00:54:45 V1M 109 00:22:33 00:21:55 RC MONT DE COUPLE 10,959 05:28
432 99 MINET ROGER 00:54:57 V3M 14 00:22:45 00:12:58 AMICALE HOSPITALIERS BOULOGNE 10,919 05:30
433 273 LEPERCQUE YANN 00:55:02 SEM 154 00:22:50 00:22:50 NON LICENCIE 10,902 05:30
434 213 CRETEL LAURENCE 00:55:05 V1F 33 00:22:53 00:16:42 CS NESLES 10,893 05:31
435 249 KERAMBRUN ALEXANDRA 00:55:05 SEF 30 00:22:53 00:15:15 WIMEREUX RUNNING CLUB 10,893 05:31
436 283 CHAVALLE ANTOINE 00:55:05 ESM 11 00:22:53 00:20:08 ATHLETISME CLUB OUTREAU 10,893 05:31
437 92 COCATRIX EMMANUELLE 00:55:10 V1F 34 00:22:58 00:16:47 AMICALE HOSPITALIERS BOULOGNE 10,876 05:31
438 5 BEAUDRAPS PASCAL 00:55:18 V2M 53 00:23:06 00:19:08 NON LICENCIE 10,850 05:32
439 153 PETIT FREDERIC 00:55:54 V2M 54 00:23:42 00:19:44 ATHLETISME CLUB OUTREAU 10,733 05:35
440 75 MACHOWIAK FRANCIS 00:56:15 V3M 15 00:24:03 00:14:16 BERCK A C O 10,667 05:37
441 233 DUCLOY ALEXANDRA 00:56:17 SEF 31 00:24:05 00:16:27 SPORT EVASION DES 2 CAPS 10,660 05:38
442 117 BRILLARD CHRISTELE 00:56:19 SEF 32 00:24:07 00:16:29 NON LICENCIE 10,654 05:38
443 23 CAPPELE SOPHIE 00:56:25 SEF 33 00:24:13 00:16:35 NON LICENCIE 10,635 05:39
444 274 CARPENTIER FABIEN 00:56:30 V1M 110 00:24:18 00:23:40 NORFRIGO 10,619 05:39
445 235 TAILLARDAS FLAVIE 00:56:32 SEF 34 00:24:20 00:16:42 NON LICENCIE 10,613 05:39
446 290 MERANDET FREDERIC 00:56:47 V1M 111 00:24:35 00:23:57 NON LICENCIE 10,566 05:41
447 226 PALETTE YANNICK 00:57:40 V1M 112 00:25:28 00:24:50 NON LICENCIE 10,405 05:46
448 390 MAGRIT GILLES 00:57:51 V1M 113 00:25:39 00:25:01 NON LICENCIE 10,372 05:47
449 206 LECLERCQ ANNE-MARIE 00:57:52 V3F 3 00:25:40 00:06:34 SAINT MARTIN ATHLETISME 10,369 05:47
450 467 ROBLIN JEREMY 00:57:52 SEM 155 00:25:40 00:25:40 NON LICENCIE 10,369 05:47
451 466 RANNOU JEAN-PASCAL 00:57:53 SEM 156 00:25:41 00:25:41 NON LICENCIE 10,366 05:47
452 530 BUTEL CATHERINE 00:58:21 V2F 7 00:26:09 00:11:21 NON LICENCIE 10,283 05:50
453 55 GOSSE MARINE 00:58:22 SEF 35 00:26:10 00:18:32 NON LICENCIE 10,280 05:50
454 214 COCHARD ELODIE 00:58:31 SEF 36 00:26:19 00:18:41 NON LICENCIE 10,253 05:51
455 561 REBOURCET ANAIS 00:58:39 SEF 37 00:26:27 00:18:49 NON LICENCIE 10,230 05:52
456 562 DUPONT NICOLAS 00:58:39 SEM 157 00:26:27 00:26:27 NON LICENCIE 10,230 05:52
457 85 WILLAERT JULIEN 00:58:39 SEM 158 00:26:27 00:26:27 NON LICENCIE 10,230 05:52
458 301 COURQUIN OCEANE 00:58:50 JUF 1 00:26:38 00:00:00 NON LICENCIE 10,198 05:53
459 109 DEGOUSSEE YANNICK 00:58:55 SEM 159 00:26:43 00:26:43 NON LICENCIE 10,184 05:54
460 546 MALFOY MICHEL 00:58:58 V2M 55 00:26:46 00:22:48 SAINT MARTIN ATHLETISME 10,175 05:54
461 299 SALMON CHRISTOPHE 00:59:00 V1M 114 00:26:48 00:26:10 NON LICENCIE 10,169 05:54
462 368 LHOMME FRANCK 00:59:00 V1M 115 00:26:48 00:26:10 NON LICENCIE 10,169 05:54
463 168 CALON ROGER 00:59:04 V1M 116 00:26:52 00:26:14 ATHLETISME CLUB OUTREAU 10,158 05:54
464 398 LAMI DIT ALIKILAU SIMONE 00:59:07 V1M 117 00:26:55 00:26:17 NON LICENCIE 10,149 05:55
465 33 LETIZIA WALTER 00:59:09 V2M 56 00:26:57 00:22:59 NON LICENCIE 10,144 05:55
466 18 BRUAUT FLORIAN 00:59:21 SEM 160 00:27:09 00:27:09 NON LICENCIE 10,110 05:56
467 16 BRUAUT MARIE 00:59:23 ESF 2 00:27:11 00:11:08 NON LICENCIE 10,104 05:56
468 279 LEGAGNEUR ALEXIA 00:59:34 CAF 4 00:27:22 00:11:44 ATHLETISME CLUB OUTREAU 10,073 05:57
469 103 DEMILLY BENEDICTE 00:59:36 SEF 38 00:27:24 00:19:46 NON LICENCIE 10,067 05:58
470 576 TOUGERON STEPHANIE 00:59:41 V1F 35 00:27:29 00:21:18 SAINT MARTIN ATHLETISME 10,053 05:58
471 185 MANSARD JEAN FRANCOIS 00:59:46 V1M 118 00:27:34 00:26:56 NON LICENCIE 10,039 05:59
472 545 MALFOY PASCALE 01:00:02 V2F 8 00:27:50 00:13:02 NON LICENCIE 9,994 06:00
473 321 LOTIN NICOLAS 01:00:06 SEM 161 00:27:54 00:27:54 WIMEREUX RUNNING CLUB 9,983 06:01
474 161 BOURSAULT HELENE 01:00:13 V1F 36 00:28:01 00:21:50 ATHLETISME CLUB OUTREAU 9,964 06:01
475 155 ROGERE KATY 01:00:13 V1F 37 00:28:01 00:21:50 ATHLETISME CLUB OUTREAU 9,964 06:01
476 157 PALFRAY MARTINE 01:00:13 V2F 9 00:28:01 00:13:13 ATHLETISME CLUB OUTREAU 9,964 06:01
477 158 LERICHE PATRICIA 01:00:13 V2F 10 00:28:01 00:13:13 ATHLETISME CLUB OUTREAU 9,964 06:01
478 162 DEBOVE SANDRINE 01:00:13 V1F 38 00:28:01 00:21:50 ATHLETISME CLUB OUTREAU 9,964 06:01
479 163 LIBERT MARIE-FRANCE 01:00:13 V2F 11 00:28:01 00:13:13 ATHLETISME CLUB OUTREAU 9,964 06:01
480 160 COUSIN SEVERINE 01:00:13 V1F 39 00:28:01 00:21:50 ATHLETISME CLUB OUTREAU 9,964 06:01
481 159 JUMETZ REGINE 01:00:13 V2F 12 00:28:01 00:13:13 ATHLETISME CLUB OUTREAU 9,964 06:01
482 71 GIRAULT VALERIE 01:00:13 V1F 40 00:28:01 00:21:50 OPALE TRAIL NATURE 9,964 06:01
483 285 WEDIER EMMA 01:00:13 ESF 3 00:28:01 00:11:58 ATHLETISME CLUB OUTREAU 9,964 06:01
484 567 CLEENEWERCK CYRIELLE 01:00:13 ESF 4 00:28:01 00:11:58 TOA 9,964 06:01
485 298 SCHUMACHER SANDRA 01:00:49 V1F 41 00:28:37 00:22:26 NON LICENCIE 9,866 06:05
486 424 LENGAGNE JULIETTE 01:00:50 SEF 39 00:28:38 00:21:00 NON LICENCIE 9,863 06:05
487 432 TELLIER LUCIE 01:00:57 SEF 40 00:28:45 00:21:07 NON LICENCIE 9,844 06:06
488 383 JOLY KATIA 01:00:59 V1F 42 00:28:47 00:22:36 NON LICENCIE 9,839 06:06
489 399 MERLIN JEAN CLAUDE 01:00:59 V2M 57 00:28:47 00:24:49 NON LICENCIE 9,839 06:06
490 129 MAILLARD NADINE 01:01:09 V3F 4 00:28:57 00:09:51 PINK LADIES 9,812 06:07
491 21 DELPLACE JULIE 01:01:30 SEF 41 00:29:18 00:21:40 NON LICENCIE 9,756 06:09
492 319 REVILLION BERANGERE 01:03:05 SEF 42 00:30:53 00:23:15 NON LICENCIE 9,511 06:18
493 52 BERTHELOT VERONIQUE 01:03:25 V1F 43 00:31:13 00:25:02 NON LICENCIE 9,461 06:20
494 110 NUNS FABIENNE 01:03:47 V1F 44 00:31:35 00:25:24 NON LICENCIE 9,407 06:23
495 39 FILLIETTE MELANIE 01:04:05 SEF 43 00:31:53 00:24:15 NON LICENCIE 9,363 06:24
496 449 DEBOVES DIDIER 01:04:11 V1M 119 00:31:59 00:31:21 NON LICENCIE 9,348 06:25
497 4 SART MALVINA 01:04:34 SEF 44 00:32:22 00:24:44 NON LICENCIE 9,293 06:27
498 294 DUMETZ DAMIEN 01:05:06 SEM 162 00:32:54 00:32:54 NON LICENCIE 9,217 06:31
499 553 MALLEVAEY BLANDINE 01:05:15 SEF 45 00:33:03 00:25:25 NON LICENCIE 9,195 06:31
500 555 MALLEVAEY BRUNO 01:05:15 V2M 58 00:33:03 00:29:05 NON LICENCIE 9,195 06:31
501 554 MALLEVAEY ETIENNE 01:05:16 SEM 163 00:33:04 00:33:04 NON LICENCIE 9,193 06:32
502 62 LIGNIER MARIE FRANCE 01:05:23 V3F 5 00:33:11 00:14:05 PINK LADY 9,177 06:32
503 28 SAGOT CATHERINE 01:06:18 V1F 45 00:34:06 00:27:55 NON LICENCIE 9,050 06:38
504 169 CALON SYLVIE 01:07:08 V2F 13 00:34:56 00:20:08 ATHLETISME CLUB OUTREAU 8,937 06:43
505 8 CLEMENT FABIEN 01:09:40 V2M 59 00:37:28 00:33:30 CULTURISME CLUB 8,612 06:58